createdAt,value
2022-08-16T00:02:28.281Z,13.85
2022-08-16T00:07:22.115Z,13.60
2022-08-16T00:12:18.045Z,12.07
2022-08-16T00:17:18.604Z,12.35
2022-08-16T00:22:15.416Z,11.68
2022-08-16T00:27:09.332Z,12.15
2022-08-16T00:32:11.117Z,13.88
2022-08-16T00:37:05.500Z,11.82
2022-08-16T00:42:03.026Z,12.65
2022-08-16T00:47:06.463Z,12.50
2022-08-16T00:52:00.642Z,12.10
2022-08-16T00:57:00.126Z,11.80
2022-08-16T01:01:56.181Z,13.10
2022-08-16T01:07:01.375Z,16.35
2022-08-16T01:11:59.404Z,12.18
2022-08-16T01:16:54.574Z,12.30
2022-08-16T01:22:47.684Z,12.68
2022-08-16T01:27:22.022Z,12.90
2022-08-16T01:32:33.674Z,12.10
2022-08-16T01:37:35.713Z,13.20
2022-08-16T01:42:32.328Z,12.30
2022-08-16T01:47:29.466Z,12.30
2022-08-16T01:52:29.278Z,15.68
2022-08-16T01:57:53.535Z,16.08
2022-08-16T02:02:52.396Z,14.07
2022-08-16T02:07:47.863Z,14.32
2022-08-16T02:12:51.414Z,14.43
2022-08-16T02:17:52.722Z,16.15
2022-08-16T02:22:49.534Z,16.20
2022-08-16T02:27:44.696Z,18.92
2022-08-16T02:32:50.276Z,17.73
2022-08-16T02:37:52.369Z,15.85
2022-08-16T02:42:55.588Z,17.40
2022-08-16T02:48:01.744Z,20.08
2022-08-16T02:53:10.025Z,18.52
2022-08-16T02:58:03.750Z,18.27
2022-08-16T03:03:01.203Z,17.63
2022-08-16T03:07:57.116Z,15.75
2022-08-16T03:12:56.035Z,14.07
2022-08-16T03:17:54.278Z,16.08
2022-08-16T03:22:51.863Z,18.30
2022-08-16T03:28:25.169Z,16.00
2022-08-16T03:33:20.714Z,17.05
2022-08-16T03:38:34.810Z,17.15
2022-08-16T03:43:51.270Z,17.23
2022-08-16T03:48:52.186Z,14.13
2022-08-16T03:53:57.785Z,15.95
2022-08-16T03:58:56.916Z,14.73
2022-08-16T04:04:02.443Z,15.65
2022-08-16T04:09:15.110Z,17.25
2022-08-16T04:14:32.774Z,14.27
2022-08-16T04:19:31.481Z,15.23
2022-08-16T04:24:29.598Z,21.50
2022-08-16T04:29:26.841Z,18.50
2022-08-16T04:34:45.058Z,16.80
2022-08-16T04:39:47.205Z,17.30
2022-08-16T04:44:53.458Z,23.88
2022-08-16T04:49:52.258Z,13.45
2022-08-16T04:54:47.829Z,20.83
2022-08-16T04:59:46.590Z,14.73
2022-08-16T05:04:39.953Z,14.40
2022-08-16T05:09:36.526Z,13.75
2022-08-16T05:14:45.759Z,13.23
2022-08-16T05:19:58.049Z,19.42
2022-08-16T05:25:18.092Z,22.50
2022-08-16T05:30:35.089Z,22.05
2022-08-16T05:35:40.882Z,26.85
2022-08-16T05:40:57.105Z,29.92
2022-08-16T05:46:05.791Z,32.07
2022-08-16T05:51:38.610Z,32.35
2022-08-16T05:56:34.142Z,32.38
2022-08-16T06:01:38.074Z,29.75
2022-08-16T06:06:34.111Z,24.95
2022-08-16T06:11:32.708Z,24.02
2022-08-16T06:16:32.888Z,23.65
2022-08-16T06:21:36.828Z,24.80
2022-08-16T06:26:32.551Z,20.85
2022-08-16T06:31:43.468Z,20.05
2022-08-16T06:37:13.092Z,19.33
2022-08-16T06:42:22.405Z,24.40
2022-08-16T06:47:53.144Z,21.98
2022-08-16T06:53:09.288Z,21.38
2022-08-16T07:04:32.750Z,23.15
2022-08-16T07:15:18.870Z,19.67
2022-08-16T07:20:48.066Z,23.77
2022-08-16T07:25:49.885Z,27.33
2022-08-16T07:31:17.184Z,21.90
2022-08-16T07:36:34.770Z,20.02
2022-08-16T07:41:32.718Z,20.00
2022-08-16T07:46:39.713Z,21.38
2022-08-16T07:52:19.098Z,20.40
2022-08-16T07:57:58.123Z,22.48
2022-08-16T08:03:04.331Z,14.55
2022-08-16T08:08:12.011Z,13.80
2022-08-16T08:13:41.655Z,13.35
2022-08-16T08:30:50.214Z,13.35
2022-08-16T08:35:36.449Z,14.95
2022-08-16T08:40:31.895Z,14.40
2022-08-16T08:45:46.935Z,13.82
2022-08-16T08:50:50.605Z,16.27
2022-08-16T08:55:59.165Z,14.57
2022-08-16T09:01:09.639Z,17.85
2022-08-16T09:06:09.784Z,16.92
2022-08-16T09:11:53.767Z,16.55
2022-08-16T09:17:51.573Z,14.32
2022-08-16T09:23:07.503Z,12.60
2022-08-16T09:29:14.010Z,13.63
2022-08-16T09:34:07.199Z,12.33
2022-08-16T09:39:42.194Z,9.70
2022-08-16T09:51:07.535Z,10.73
2022-08-16T09:57:27.983Z,9.93
2022-08-16T10:02:31.667Z,9.75
2022-08-16T10:07:45.400Z,13.73
2022-08-16T10:13:08.713Z,10.77
2022-08-16T10:18:56.572Z,11.15
2022-08-16T10:24:33.145Z,10.80
2022-08-16T10:30:01.108Z,10.30
2022-08-16T10:34:45.713Z,9.68
2022-08-16T10:40:29.188Z,10.38
2022-08-16T10:45:40.409Z,9.40
2022-08-16T10:51:33.556Z,10.05
2022-08-16T10:56:55.539Z,9.48
2022-08-16T11:07:56.737Z,9.02
2022-08-16T11:18:54.681Z,8.60
2022-08-16T11:29:46.934Z,12.98
2022-08-16T11:35:05.883Z,8.95
2022-08-16T11:40:11.494Z,8.88
2022-08-16T11:51:51.680Z,10.25
2022-08-16T11:57:04.209Z,8.77
2022-08-16T12:07:55.342Z,8.20
2022-08-16T12:12:59.151Z,9.38
2022-08-16T12:18:20.700Z,8.88
2022-08-16T12:29:31.175Z,9.03
2022-08-16T12:34:53.027Z,8.23
2022-08-16T12:40:31.740Z,8.35
2022-08-16T12:45:43.517Z,9.70
2022-08-16T13:02:46.027Z,7.28
2022-08-16T13:07:51.891Z,7.95
2022-08-16T13:13:59.086Z,9.45
2022-08-16T13:19:10.354Z,8.23
2022-08-16T13:24:18.856Z,8.55
2022-08-16T13:29:23.091Z,8.57
2022-08-16T13:34:41.918Z,7.32
2022-08-16T13:39:58.970Z,7.88
2022-08-16T13:52:14.051Z,8.73
2022-08-16T13:57:53.362Z,7.78
2022-08-16T14:02:59.957Z,10.95
2022-08-16T14:07:56.936Z,10.40
2022-08-16T14:13:02.247Z,10.45
2022-08-16T14:18:17.106Z,13.18
2022-08-16T14:23:28.091Z,13.13
2022-08-16T14:28:47.199Z,10.90
2022-08-16T15:51:15.424Z,10.85
2022-08-16T15:57:22.581Z,7.28
2022-08-16T16:22:14.489Z,6.35
2022-08-16T17:06:12.766Z,9.52
2022-08-16T17:11:25.505Z,7.10
2022-08-16T17:22:04.954Z,7.22
2022-08-16T17:27:08.187Z,7.85
2022-08-16T17:32:02.447Z,8.82
2022-08-16T17:37:42.351Z,6.25
2022-08-16T17:43:04.251Z,7.40
2022-08-16T17:48:07.149Z,8.20
2022-08-16T17:53:09.803Z,6.97
2022-08-16T17:58:22.349Z,6.78
2022-08-16T18:03:24.071Z,6.53
2022-08-16T18:08:51.221Z,6.70
2022-08-16T18:14:01.404Z,6.95
2022-08-16T18:18:58.126Z,6.63
2022-08-16T18:24:09.488Z,6.40
2022-08-16T18:29:07.137Z,7.72
2022-08-16T18:34:09.345Z,8.70
2022-08-16T18:39:14.673Z,9.13
2022-08-16T18:44:42.084Z,13.10
2022-08-16T18:49:43.678Z,6.85
2022-08-16T18:55:01.818Z,12.27
2022-08-16T19:00:55.891Z,6.65
2022-08-16T19:06:02.575Z,6.72
2022-08-16T19:11:12.032Z,6.97
2022-08-16T19:21:16.751Z,7.40
2022-08-16T19:26:43.419Z,7.35
2022-08-16T19:32:00.126Z,11.65
2022-08-16T19:36:54.529Z,8.02
2022-08-16T19:41:54.249Z,9.57
2022-08-16T19:46:52.833Z,10.57
2022-08-16T19:51:54.339Z,10.90
2022-08-16T19:56:50.809Z,9.15
2022-08-16T20:01:49.410Z,16.58
2022-08-16T20:11:46.480Z,13.45
2022-08-16T20:16:41.973Z,12.70
2022-08-16T20:21:38.688Z,13.07
2022-08-16T20:26:40.913Z,12.52
2022-08-16T20:31:43.084Z,15.23
2022-08-16T20:36:48.350Z,17.83
2022-08-16T20:41:43.227Z,12.93
2022-08-16T20:46:43.355Z,30.48
2022-08-16T20:51:49.823Z,30.35
2022-08-16T20:56:51.905Z,19.10
2022-08-16T21:01:50.147Z,18.70
2022-08-16T21:06:52.998Z,21.25
2022-08-16T21:11:52.494Z,14.60
2022-08-16T21:21:44.923Z,11.75
2022-08-16T21:26:39.800Z,11.05
2022-08-16T21:31:41.463Z,14.45
2022-08-16T21:36:36.638Z,12.30
2022-08-16T21:41:33.593Z,9.95
2022-08-16T21:46:41.674Z,9.48
2022-08-16T21:51:38.989Z,11.40
2022-08-16T21:56:33.291Z,9.10
2022-08-16T22:01:30.056Z,10.90
2022-08-16T22:06:32.852Z,10.23
2022-08-16T22:11:31.936Z,9.45
2022-08-16T22:16:25.889Z,8.13
2022-08-16T22:21:19.500Z,12.27
2022-08-16T22:26:15.103Z,10.00
2022-08-16T22:31:15.717Z,10.00
2022-08-16T22:36:12.917Z,10.00
2022-08-16T22:41:11.481Z,12.25
2022-08-16T22:46:07.724Z,11.10
2022-08-16T22:51:07.212Z,8.65
2022-08-16T22:56:04.932Z,10.90
2022-08-16T23:01:00.289Z,9.48
2022-08-16T23:06:01.117Z,9.85
2022-08-16T23:11:02.117Z,8.90
2022-08-16T23:16:11.199Z,8.90
2022-08-16T23:21:08.480Z,10.45
2022-08-16T23:26:44.026Z,8.98
2022-08-16T23:31:22.428Z,10.48
2022-08-16T23:36:16.097Z,10.68
2022-08-16T23:41:13.078Z,9.30
2022-08-16T23:46:12.011Z,9.00
2022-08-16T23:51:09.718Z,10.80
2022-08-16T23:56:06.611Z,10.27
